Race progress: MT Misery

  • Race started:
    Sunday, August 9, 2015 08:00 (GMT+9:30)
  • Race location:
    Greenacres, Australia
Race finished
Place Bib Racer name Age Category Finish time
1 299 McCabe, Matt 32 M-30-34 2:08:02.4 --100%34.18%31.89%
2 321 Funk, Kieren 21 M-19-24 2:10:07.5 +2:05.1+1.63%98.40%33.11%30.78%
3 296 Hockings, Ben 37 M-35-39 2:11:24.0 +3:21.6+2.62%97.44%32.45%30.10%
4 291 Kromkamp, Adam 38 M-35-39 2:15:13.4 +7:11.0+5.61%94.69%30.49%28.06%
5 193 Varney, Michael 44 M-40-44 2:22:21.1 +14:18.7+11.18%89.95%26.82%24.27%
6 99 Knowler, James 40 M-40-44 2:25:55.7 +17:53.3+13.97%87.74%24.99%22.37%
7 223 Pattison, Clint 43 M-40-44 2:28:13.1 +20:10.7+15.76%86.39%23.81%21.15%
8 284 Searle, Dan 33 M-30-34 2:28:42.1 +20:39.7+16.14%86.11%23.56%20.89%
9 318 Tooth, Blake 32 M-30-34 2:28:47.3 +20:44.9+16.20%86.06%23.52%20.85%
10 157 Ton, Shaun 27 M-25-29 2:29:27.3 +21:24.9+16.73%85.67%23.17%20.49%
11 136 Kuwata, Kazu 36 F-35-39 2:29:50.8 +21:48.4+17.03%85.45%22.97%20.29%
12 281 Morfey, Shaun 34 M-30-34 2:30:03.3 +22:00.9+17.19%85.33%22.86%20.17%
13 288 Cardwell, Josh 24 M-19-24 2:30:56.8 +22:54.4+17.89%84.82%22.41%19.70%
14 300 Mills, Chris 32 M-30-34 2:31:22.8 +23:20.4+18.23%84.58%22.18%19.47%
15 44 Teale, Hayley 37 F-35-39 2:32:03.2 +24:00.8+18.75%84.21%21.84%19.11%
16 152 Sykes, Cliff 48 M-45-49 2:32:39.1 +24:36.7+19.22%83.88%21.53%18.79%
17 176 How, Travis 40 M-40-44 2:34:36.0 +26:33.6+20.74%82.82%20.53%17.76%
18 266 Carton, Tim 25 M-25-29 2:36:01.7 +27:59.3+21.86%82.06%19.79%17.00%
19 251 Flower, Cliff 49 M-45-49 2:36:37.8 +28:35.4+22.33%81.75%19.48%16.68%
20 302 Stokes, Pete 39 M-35-39 2:38:11.0 +30:08.6+23.54%80.94%18.69%15.85%
21 25 Young, Bronwyn 38 F-35-39 2:38:22.1 +30:19.7+23.69%80.85%18.59%15.75%
22 323 Kelly, Greg 50 M-50-54 2:40:12.3 +32:09.9+25.12%79.92%17.65%14.78%
23 166 Greeneklee, Stirling 57 M-55-59 2:40:20.3 +32:17.9+25.23%79.86%17.58%14.70%
24 175 McLean, Gary 52 M-50-54 2:41:08.0 +33:05.6+25.85%79.46%17.17%14.28%
25 303 Bang, Ryan 37 M-35-39 2:42:30.7 +34:28.3+26.92%78.79%16.46%13.55%
26 320 Hunt, Glen 37 M-35-39 2:42:52.5 +34:50.1+27.21%78.61%16.27%13.35%
27 254 Kniter, Craig 43 M-40-44 2:43:38.6 +35:36.2+27.81%78.24%15.88%12.95%
28 184 Kelly, Steven 43 M-40-44 2:43:53.2 +35:50.8+28.00%78.13%15.75%12.82%
29 221 LeMire, David 44 M-40-44 2:44:04.0 +36:01.6+28.14%78.04%15.66%12.72%
30 265 Carrey, Chris 36 M-35-39 2:44:36.0 +36:33.6+28.55%77.79%15.39%12.44%
31 276 Golding, Kirk 43 M-40-44 2:45:00.9 +36:58.5+28.88%77.59%15.17%12.22%
32 271 Howat, Robert 40 M-40-44 2:45:45.7 +37:43.3+29.46%77.24%14.79%11.82%
33 322 Funk, Brayden 16 M-Junior 2:45:58.8 +37:56.4+29.63%77.14%14.68%11.70%
34 289 Bang, Jordan 31 M-30-34 2:51:22.9 +43:20.5+33.85%74.71%11.90%8.83%
35 149 Colebatch, Erin 32 F-30-34 2:51:28.0 +43:25.6+33.92%74.67%11.86%8.78%
36 315 Kenward, Toby 27 M-25-29 2:53:33.2 +45:30.8+35.55%73.78%10.79%7.67%
37 256 Gohl, Matthew 43 M-40-44 2:55:28.0 +47:25.6+37.04%72.97%9.80%6.66%
38 39 Miller, Jonathan 50 M-50-54 2:55:30.0 +47:27.6+37.07%72.96%9.78%6.64%
39 156 Mitchell, Jamie 41 M-40-44 3:00:34.5 +52:32.1+41.03%70.91%7.18%3.94%
40 274 Benny, Angela 41 F-40-44 3:01:28.4 +53:26.0+41.73%70.56%6.71%3.46%
41 259 Pascoe, Karina 33 F-30-34 3:01:59.2 +53:56.8+42.13%70.36%6.45%3.19%
42 143 Temple, Niall 42 M-40-44 3:04:03.4 +56:01.0+43.75%69.57%5.39%2.09%
43 164 Munzberg, Emma 45 F-45-49 3:04:07.5 +56:05.1+43.80%69.54%5.35%2.05%
44 93 Dueholm, Bjorn 31 M-30-34 3:04:26.3 +56:23.9+44.05%69.42%5.19%1.88%
45 316 Martin, Andrew 28 M-25-29 3:04:44.2 +56:41.8+44.28%69.31%5.04%1.72%
46 293 Dixon, Geraldine 46 F-45-49 3:05:03.9 +57:01.5+44.54%69.19%4.87%1.55%
47 301 Fuller, James 33 M-30-34 3:05:05.3 +57:02.9+44.56%69.18%4.86%1.54%
48 311 Lutze, Gavin 53 M-50-54 3:05:58.2 +57:55.8+45.24%68.85%4.40%1.07%
49 312 Wadewitz, Adam 38 M-35-39 3:06:17.2 +58:14.8+45.49%68.73%4.24%0.90%
50 263 Hayes, Amanda 44 F-40-44 3:06:30.0 +58:27.6+45.66%68.65%4.13%0.79%
51 264 Rigby, Darrin 40 M-40-44 3:06:44.0 +58:41.6+45.84%68.57%4.01%0.66%
52 260 Kennedy, Tracey 48 F-45-49 3:07:39.0 +59:36.6+46.56%68.23%3.54%0.18%
53 107 Roberts, Adam 48 M-45-49 3:07:47.8 +59:45.4+46.67%68.18%3.46%0.10%
54 238 Gwynn-Jones, Bronwen 46 F-45-49 3:07:53.0 +59:50.6+46.74%68.15%3.42%0.05%
55 135 Tottey, Graham 46 M-45-49 3:08:04.5 +1:00:02.1+46.89%68.08%3.32%-0.05%
56 310 Lutze, Jennifer 55 F-55-59 3:08:50.3 +1:00:47.9+47.48%67.80%2.93%-0.46%
57 147 Russell, Sonja 27 F-25-29 3:09:15.9 +1:01:13.5+47.82%67.65%2.71%-0.68%
58 78 Mceachern, Sarah 32 F-30-34 3:09:16.4 +1:01:14.0+47.82%67.65%2.70%-0.69%
59 262 Standish, Nicole 40 F-40-44 3:10:01.9 +1:01:59.5+48.42%67.38%2.31%-1.09%
60 119 Vasey, Brenton 41 M-40-44 3:10:03.7 +1:02:01.3+48.44%67.37%2.30%-1.11%
61 225 Richards, Jed 44 M-40-44 3:15:04.0 +1:07:01.6+52.35%65.64%-0.27%-3.77%
62 228 Dall, David 39 M-35-39 3:15:04.6 +1:07:02.2+52.36%65.64%-0.28%-3.78%
63 194 Stevens, Adam 41 M-40-44 3:16:10.9 +1:08:08.5+53.22%65.27%-0.85%-4.36%
64 247 Smith, Chris 45 M-45-49 3:17:17.0 +1:09:14.6+54.08%64.90%-1.41%-4.95%
65 40 Kent, Stephan 59 M-55-59 3:17:18.5 +1:09:16.1+54.10%64.89%-1.43%-4.96%
66 313 Rugless, Paul 66 M-60-69 3:17:29.1 +1:09:26.7+54.24%64.84%-1.52%-5.06%
67 277 Murphy, Sarah 40 F-40-44 3:18:09.3 +1:10:06.9+54.76%64.62%-1.86%-5.41%
68 98 Warne, Geoff 50 M-50-54 3:18:55.4 +1:10:53.0+55.36%64.37%-2.26%-5.82%
69 105 Meyers, Luke 35 M-35-39 3:19:47.9 +1:11:45.5+56.04%64.08%-2.71%-6.29%
70 270 Biggs, Craig 38 M-35-39 3:20:51.2 +1:12:48.8+56.87%63.75%-3.25%-6.85%
71 308 Sabine, Beck 40 F-40-44 3:21:35.2 +1:13:32.8+57.44%63.52%-3.62%-7.24%
72 121 Schubert, Guy 64 M-60-69 3:23:07.5 +1:15:05.1+58.64%63.04%-4.42%-8.06%
73 32 Fitzgerald, Adam 36 M-35-39 3:23:20.9 +1:15:18.5+58.82%62.97%-4.53%-8.18%
74 1333 Goodrich, Georgina 44 F-40-44 3:24:26.8 +1:16:24.4+59.67%62.63%-5.10%-8.76%
75 155 Crawford, Justine 42 F-40-44 3:25:54.1 +1:17:51.7+60.81%62.19%-5.84%-9.53%
75 324 Morrison, Kendall 30 F-30-34 3:25:54.1 +1:17:51.7+60.81%62.19%-5.84%-9.53%
77 89 Hughes, Diane 55 F-55-59 3:27:41.8 +1:19:39.4+62.21%61.65%-6.77%-10.49%
78 283 Braddon, Mark 51 M-50-54 3:28:55.5 +1:20:53.1+63.17%61.29%-7.40%-11.14%
79 226 Bazley, Nathan 30 M-30-34 3:30:44.6 +1:22:42.2+64.59%60.76%-8.33%-12.11%
80 278 Marshall, Richard 39 M-35-39 3:30:47.5 +1:22:45.1+64.63%60.74%-8.36%-12.14%
81 280 MacIntosh, Emma 20 F-19-24 3:31:43.0 +1:23:40.6+65.35%60.48%-8.83%-12.63%
82 272 Hill, Ian 61 M-60-69 3:31:45.6 +1:23:43.2+65.39%60.46%-8.85%-12.65%
83 285 Zanker, Liana 38 F-35-39 3:32:50.1 +1:24:47.7+66.23%60.16%-9.41%-13.22%
84 5 Harrihill, David 49 M-45-49 3:39:01.3 +1:30:58.9+71.06%58.46%-12.59%-16.51%
85 19 Pantelic, Natalija 36 F-35-39 3:39:09.8 +1:31:07.4+71.17%58.42%-12.66%-16.59%
86 309 Kaneko, Chris 44 F-40-44 3:40:07.8 +1:32:05.4+71.92%58.17%-13.16%-17.10%
87 273 Wild, Lauri 51 F-50-54 3:40:42.5 +1:32:40.1+72.37%58.01%-13.45%-17.41%
88 255 Lycos, Kimon 45 M-45-49 3:43:24.0 +1:35:21.6+74.48%57.31%-14.84%-18.84%
89 234 Junblat, Ziad 48 M-45-49 3:43:26.6 +1:35:24.2+74.51%57.30%-14.86%-18.87%
90 279 Mumford, Rebecca 40 F-40-44 3:45:32.4 +1:37:30.0+76.15%56.77%-15.94%-19.98%
91 275 Hart, Fiona 40 F-40-44 3:45:59.5 +1:37:57.1+76.50%56.66%-16.17%-20.22%
92 168 Greeneklee, Jen 54 F-50-54 3:46:01.6 +1:37:59.2+76.53%56.65%-16.19%-20.24%
93 192 Quinn, Anne-Marie 44 F-40-44 3:48:50.8 +1:40:48.4+78.73%55.95%-17.64%-21.74%
94 218 Stubing, Toni 52 F-50-54 3:50:07.7 +1:42:05.3+79.73%55.64%-18.30%-22.42%
95 161 Richardson Burgess, Sue 41 F-40-44 3:54:54.7 +1:46:52.3+83.47%54.51%-20.76%-24.97%
96 325 Matijevic, Belinda 43 F-40-44 3:55:02.6 +1:47:00.2+83.57%54.48%-20.82%-25.04%
97 52 Thompson, Louise 43 F-40-44 3:56:20.7 +1:48:18.3+84.59%54.18%-21.49%-25.73%
98 269 Taipari, Rebecca 34 F-30-34 4:17:01.4 +2:08:59.0+100.74%49.82%-32.12%-36.73%
98 295 Mere, Katie 28 F-25-29 4:17:01.4 +2:08:59.0+100.74%49.82%-32.12%-36.73%
98 297 McCue, Jenna 27 F-25-29 4:17:01.4 +2:08:59.0+100.74%49.82%-32.12%-36.73%
101 132 Fotheringham, Michael 43 M-40-44 4:18:48.9 +2:10:46.5+102.14%49.47%-33.04%-37.68%
102 307 Wishart, Karen 47 F-45-49 4:29:59.8 +2:21:57.4+110.87%47.42%-38.79%-43.63%
103 55 Hanlin, Michelle 44 F-40-44 5:01:00.0 +2:52:57.6+135.08%42.54%-54.73%-60.12%
103 282 Krieg, Kelly 34 F-30-34 5:01:00.0 +2:52:57.6+135.08%42.54%-54.73%-60.12%
103 290 Voigt, Cassie 33 F-30-34 5:01:00.0 +2:52:57.6+135.08%42.54%-54.73%-60.12%
103 292 Mount, Phil 69 M-60-69 5:01:00.0 +2:52:57.6+135.08%42.54%-54.73%-60.12%
107 305 Tiggemann, Marnie 46 F-45-49 5:20:00.0 +3:11:57.6+149.92%40.01%-64.49%-70.23%
107 306 Almond, Natalie 49 F-45-49 5:20:00.0 +3:11:57.6+149.92%40.01%-64.49%-70.23%
- 286 Chambers, Amy 25 F-25-29 DNF -----
- 314 Demczuk, David 36 M-35-39 DNF -----
- 317 Pearson, Simon 32 M-30-34 DNF -----
- 319 Balfour, Belinda 56 F-55-59 DNF -----
- 7 Chandler, Nari 39 F-35-39 DSQ -----
- 31 Dixon, Mark 43 M-40-44 DSQ -----
- 179 Taylor, Claire 40 F-40-44 DSQ -----
- 220 Bourner, Tim 42 M-40-44 DSQ -----
- 257 Jensen, Krista 28 F-25-29 DSQ -----
- 267 Fedele, Kerry 37 F-35-39 DSQ -----